createdAt,value
2023-04-15T00:00:52.140Z,73.70
2023-04-15T00:01:55.156Z,73.73
2023-04-15T00:02:58.387Z,73.60
2023-04-15T00:04:01.962Z,73.92
2023-04-15T00:05:06.281Z,73.88
2023-04-15T00:06:09.865Z,74.26
2023-04-15T00:07:13.565Z,74.26
2023-04-15T00:08:16.441Z,74.22
2023-04-15T00:09:20.053Z,74.16
2023-04-15T00:10:22.940Z,74.05
2023-04-15T00:11:26.033Z,74.07
2023-04-15T00:12:29.039Z,74.26
2023-04-15T00:13:35.232Z,74.21
2023-04-15T00:14:38.184Z,74.19
2023-04-15T00:15:41.407Z,74.36
2023-04-15T00:16:44.408Z,74.30
2023-04-15T00:17:47.887Z,74.35
2023-04-15T00:18:50.798Z,74.48
2023-04-15T00:19:54.551Z,74.78
2023-04-15T00:20:57.478Z,74.61
2023-04-15T00:22:01.031Z,74.52
2023-04-15T00:23:04.290Z,74.84
2023-04-15T00:24:07.693Z,74.70
2023-04-15T00:25:10.682Z,74.80
2023-04-15T00:26:13.537Z,74.57
2023-04-15T00:27:17.178Z,74.67
2023-04-15T00:28:20.116Z,74.87
2023-04-15T00:29:23.344Z,75.02
2023-04-15T00:30:26.682Z,74.89
2023-04-15T00:31:31.455Z,74.84
2023-04-15T00:32:34.418Z,74.91
2023-04-15T00:33:37.519Z,75.03
2023-04-15T00:34:40.596Z,74.87
2023-04-15T00:35:43.966Z,75.14
2023-04-15T00:36:47.062Z,75.20
2023-04-15T00:37:49.903Z,75.33
2023-04-15T00:38:52.768Z,75.33
2023-04-15T00:39:57.255Z,75.50
2023-04-15T00:41:00.295Z,75.39
2023-04-15T00:42:05.393Z,75.59
2023-04-15T00:43:08.355Z,75.59
2023-04-15T00:44:11.466Z,75.61
2023-04-15T00:45:14.407Z,75.71
2023-04-15T00:46:20.758Z,75.60
2023-04-15T00:47:23.765Z,75.77
2023-04-15T00:48:28.052Z,75.85
2023-04-15T00:49:32.310Z,75.87
2023-04-15T00:50:35.208Z,76.11
2023-04-15T00:51:38.088Z,75.97
2023-04-15T00:52:41.775Z,76.14
2023-04-15T00:53:45.011Z,76.30
2023-04-15T00:54:48.567Z,76.22
2023-04-15T00:55:51.555Z,77.00
2023-04-15T00:56:54.522Z,76.77
2023-04-15T00:57:57.911Z,76.71
2023-04-15T00:59:02.452Z,76.78
2023-04-15T01:00:08.094Z,77.09
2023-04-15T01:01:11.502Z,77.05
2023-04-15T01:02:15.298Z,76.91
2023-04-15T01:03:18.337Z,77.24
2023-04-15T01:04:21.624Z,77.31
2023-04-15T01:05:25.154Z,77.20
2023-04-15T01:06:28.317Z,77.48
2023-04-15T01:07:32.397Z,77.35
2023-04-15T01:08:35.717Z,77.42
2023-04-15T01:09:39.161Z,77.51
2023-04-15T01:10:42.067Z,77.62
2023-04-15T01:11:44.988Z,77.40
2023-04-15T01:12:48.270Z,77.55
2023-04-15T01:13:52.707Z,77.74
2023-04-15T01:14:56.771Z,77.86
2023-04-15T01:15:59.787Z,78.00
2023-04-15T01:17:03.022Z,78.46
2023-04-15T01:18:06.425Z,78.11
2023-04-15T01:19:10.966Z,78.40
2023-04-15T01:20:16.020Z,78.35
2023-04-15T01:21:19.969Z,78.35
2023-04-15T01:22:23.905Z,78.23
2023-04-15T01:23:27.462Z,78.29
2023-04-15T01:24:31.767Z,78.53
2023-04-15T01:25:35.213Z,78.89
2023-04-15T01:26:42.326Z,78.80
2023-04-15T01:27:46.561Z,78.59
2023-04-15T01:28:49.561Z,78.92
2023-04-15T01:29:52.905Z,78.81
2023-04-15T01:31:09.014Z,78.76
2023-04-15T01:32:13.466Z,78.76
2023-04-15T01:33:16.360Z,78.79
2023-04-15T01:34:19.580Z,78.80
2023-04-15T01:35:22.677Z,78.67
2023-04-15T01:36:28.089Z,79.01
2023-04-15T01:37:31.411Z,79.00
2023-04-15T01:38:34.698Z,78.87
2023-04-15T01:39:38.104Z,78.81
2023-04-15T01:40:41.036Z,78.99
2023-04-15T01:41:44.196Z,79.02
2023-04-15T01:42:47.402Z,79.23
2023-04-15T01:43:52.668Z,79.28
2023-04-15T01:44:55.914Z,79.31
2023-04-15T01:45:58.845Z,79.46
2023-04-15T01:47:01.741Z,79.64
2023-04-15T01:48:04.793Z,79.65
2023-04-15T01:49:07.769Z,79.67
2023-04-15T01:50:10.991Z,79.65
2023-04-15T01:51:13.866Z,79.85
2023-04-15T01:52:16.672Z,79.79
2023-04-15T01:53:19.943Z,80.02
2023-04-15T01:54:22.986Z,80.17
2023-04-15T01:55:27.544Z,80.17
2023-04-15T01:56:30.397Z,80.13
2023-04-15T01:57:33.264Z,80.37
2023-04-15T01:58:37.412Z,80.20
2023-04-15T01:59:41.160Z,80.37
2023-04-15T02:00:44.152Z,80.54
2023-04-15T02:01:47.321Z,80.39
2023-04-15T02:02:50.616Z,80.68
2023-04-15T02:03:54.032Z,80.69
2023-04-15T02:04:56.953Z,80.67
2023-04-15T02:05:59.901Z,80.84
2023-04-15T02:07:04.472Z,80.98
2023-04-15T02:08:07.546Z,81.17
2023-04-15T02:09:13.500Z,81.21
2023-04-15T02:10:16.905Z,81.11
2023-04-15T02:11:19.963Z,81.43
2023-04-15T02:12:22.877Z,81.22
2023-04-15T02:13:25.816Z,81.25
2023-04-15T02:14:28.673Z,81.08
2023-04-15T02:15:31.719Z,81.26
2023-04-15T02:16:34.651Z,81.34
2023-04-15T02:17:37.876Z,81.64
2023-04-15T02:18:40.786Z,81.80
2023-04-15T02:19:46.065Z,81.84
2023-04-15T02:20:49.519Z,81.71
2023-04-15T02:21:52.346Z,81.61
2023-04-15T02:22:55.278Z,81.63
2023-04-15T02:23:58.114Z,81.86
2023-04-15T02:25:01.130Z,82.07
2023-04-15T02:26:04.154Z,81.53
2023-04-15T02:27:07.703Z,81.96
2023-04-15T02:28:10.732Z,81.88
2023-04-15T02:29:13.618Z,81.91
2023-04-15T02:30:17.168Z,81.92
2023-04-15T02:31:21.833Z,81.88
2023-04-15T02:32:24.912Z,82.14
2023-04-15T02:33:32.456Z,82.25
2023-04-15T02:34:36.069Z,82.35
2023-04-15T02:35:42.224Z,82.31
2023-04-15T02:36:47.028Z,82.45
2023-04-15T02:37:50.508Z,82.54
2023-04-15T02:38:53.741Z,82.34
2023-04-15T02:39:57.225Z,82.61
2023-04-15T02:41:00.695Z,82.51
2023-04-15T02:42:06.186Z,82.72
2023-04-15T02:43:09.034Z,82.54
2023-04-15T02:44:13.128Z,82.68
2023-04-15T02:45:18.337Z,82.69
2023-04-15T02:46:23.036Z,82.63
2023-04-15T02:47:26.242Z,82.88
2023-04-15T02:48:29.252Z,82.74
2023-04-15T02:49:33.902Z,82.72
2023-04-15T02:50:39.870Z,82.78
2023-04-15T02:51:43.352Z,82.94
2023-04-15T02:52:46.369Z,82.84
2023-04-15T02:53:50.184Z,83.06
2023-04-15T02:54:54.746Z,82.99
2023-04-15T02:55:57.708Z,82.77
2023-04-15T02:57:01.731Z,82.94
2023-04-15T02:58:04.769Z,83.18
2023-04-15T02:59:07.728Z,83.57
2023-04-15T03:00:12.065Z,83.40
2023-04-15T03:01:17.725Z,83.11
2023-04-15T03:02:21.489Z,82.94
2023-04-15T03:03:24.697Z,83.31
2023-04-15T03:04:30.177Z,83.10
2023-04-15T03:05:33.164Z,83.18
2023-04-15T03:06:36.745Z,83.03
2023-04-15T03:07:43.214Z,83.13
2023-04-15T03:08:46.865Z,83.33
2023-04-15T03:09:50.035Z,83.41
2023-04-15T03:10:53.766Z,83.51
2023-04-15T03:11:57.164Z,83.50
2023-04-15T03:13:01.205Z,83.58
2023-04-15T03:14:04.078Z,83.75
2023-04-15T03:15:09.987Z,83.45
2023-04-15T03:16:15.327Z,83.84
2023-04-15T03:17:18.511Z,83.73
2023-04-15T03:18:21.760Z,83.50
2023-04-15T03:19:24.618Z,83.71
2023-04-15T03:20:27.728Z,83.47
2023-04-15T03:21:30.947Z,83.58
2023-04-15T03:22:34.174Z,83.52
2023-04-15T03:23:36.989Z,83.77
2023-04-15T03:24:39.843Z,83.69
2023-04-15T03:25:42.857Z,83.65
2023-04-15T03:26:45.750Z,83.61
2023-04-15T03:27:51.429Z,83.93
2023-04-15T03:28:54.704Z,83.74
2023-04-15T03:29:57.566Z,83.94
2023-04-15T03:31:01.175Z,83.87
2023-04-15T03:32:04.637Z,83.77
2023-04-15T03:33:09.216Z,83.89
2023-04-15T03:34:12.582Z,83.80
2023-04-15T03:35:15.911Z,83.62
2023-04-15T03:36:18.799Z,83.80
2023-04-15T03:37:21.846Z,83.82
2023-04-15T03:38:25.005Z,84.08
2023-04-15T03:39:27.866Z,84.05
2023-04-15T03:40:30.793Z,84.00
2023-04-15T03:41:33.752Z,83.99
2023-04-15T03:42:36.612Z,84.04
2023-04-15T03:43:39.491Z,84.10
2023-04-15T03:44:42.350Z,84.13
2023-04-15T03:45:45.349Z,84.02
2023-04-15T03:46:48.303Z,83.73
2023-04-15T03:47:51.729Z,84.03
2023-04-15T03:48:54.645Z,84.29
2023-04-15T03:49:57.576Z,84.11
2023-04-15T03:51:00.453Z,83.95
2023-04-15T03:52:03.365Z,84.02
2023-04-15T03:53:06.639Z,84.13
2023-04-15T03:54:09.477Z,84.12
2023-04-15T03:55:12.396Z,84.23
2023-04-15T03:56:15.247Z,84.22
2023-04-15T03:57:18.115Z,84.66
2023-04-15T03:58:21.086Z,84.40
2023-04-15T03:59:23.931Z,84.27
2023-04-15T04:00:26.843Z,84.37
2023-04-15T04:01:29.751Z,84.17
2023-04-15T04:02:32.834Z,84.07
2023-04-15T04:03:37.333Z,83.95
2023-04-15T04:04:40.737Z,84.35
2023-04-15T04:05:44.611Z,84.30
2023-04-15T04:06:48.106Z,84.34
2023-04-15T04:07:51.178Z,84.25
2023-04-15T04:08:54.027Z,84.27
2023-04-15T04:09:58.097Z,84.33
2023-04-15T04:11:01.010Z,84.22
2023-04-15T04:12:04.334Z,84.42
2023-04-15T04:13:07.184Z,84.57
2023-04-15T04:14:10.644Z,84.29
2023-04-15T04:15:13.536Z,84.34
2023-04-15T04:16:16.688Z,84.55
2023-04-15T04:17:19.764Z,84.43
2023-04-15T04:18:22.848Z,84.64
2023-04-15T04:19:25.812Z,84.56
2023-04-15T04:20:28.660Z,84.30
2023-04-15T04:21:31.635Z,84.27
2023-04-15T04:22:41.330Z,84.34
2023-04-15T04:23:44.236Z,84.51
2023-04-15T04:24:47.071Z,84.94
2023-04-15T04:25:49.946Z,84.59
2023-04-15T04:26:52.816Z,84.95
2023-04-15T04:27:55.659Z,84.81
2023-04-15T04:28:58.825Z,84.89
2023-04-15T04:30:02.187Z,84.91
2023-04-15T04:31:05.179Z,85.11
2023-04-15T04:32:08.539Z,84.88
2023-04-15T04:33:11.796Z,84.91
2023-04-15T04:34:15.546Z,84.94
2023-04-15T04:35:18.463Z,84.98
2023-04-15T04:36:21.739Z,84.93
2023-04-15T04:37:25.117Z,85.12
2023-04-15T04:38:27.924Z,85.16
2023-04-15T04:39:30.790Z,85.09
2023-04-15T04:40:34.153Z,84.89
2023-04-15T04:41:37.008Z,85.12
2023-04-15T04:42:40.243Z,85.04
2023-04-15T04:43:43.189Z,85.25
2023-04-15T04:44:46.493Z,85.22
2023-04-15T04:45:49.402Z,85.18
2023-04-15T04:46:52.542Z,85.07
2023-04-15T04:47:55.670Z,85.38
2023-04-15T04:48:58.574Z,85.19
2023-04-15T04:50:01.384Z,85.28
2023-04-15T04:51:04.266Z,85.39
2023-04-15T04:52:07.380Z,85.35
2023-04-15T04:53:10.195Z,85.55
2023-04-15T04:54:13.059Z,85.45
2023-04-15T04:55:16.091Z,85.10
2023-04-15T04:56:19.567Z,85.16
2023-04-15T04:57:23.191Z,85.31
2023-04-15T04:58:26.091Z,85.33
2023-04-15T04:59:28.997Z,85.42
2023-04-15T05:00:31.908Z,85.35
2023-04-15T05:01:35.086Z,85.43
2023-04-15T05:02:38.478Z,85.72
2023-04-15T05:03:41.937Z,85.63
2023-04-15T05:04:44.873Z,85.54
2023-04-15T05:05:49.340Z,85.31
2023-04-15T05:06:52.215Z,85.48
2023-04-15T05:07:55.134Z,85.68
2023-04-15T05:08:58.106Z,85.72
2023-04-15T05:10:01.863Z,85.76
2023-04-15T05:11:04.874Z,85.69
2023-04-15T05:12:09.086Z,85.72
2023-04-15T05:13:12.361Z,85.68
2023-04-15T05:14:15.264Z,85.64
2023-04-15T05:15:18.162Z,85.78
2023-04-15T05:16:21.662Z,85.73
2023-04-15T05:17:24.571Z,85.51
2023-04-15T05:18:27.539Z,85.91
2023-04-15T05:19:30.546Z,85.96
2023-04-15T05:20:33.455Z,85.54
2023-04-15T05:21:38.366Z,86.04
2023-04-15T05:22:42.375Z,86.05
2023-04-15T05:23:45.441Z,85.62
2023-04-15T05:24:48.367Z,85.80
2023-04-15T05:25:51.582Z,85.90
2023-04-15T05:26:54.586Z,86.03
2023-04-15T05:27:57.403Z,85.96
2023-04-15T05:29:00.487Z,86.01
2023-04-15T05:30:03.639Z,85.92
2023-04-15T05:31:07.416Z,86.09
2023-04-15T05:32:11.373Z,85.93
2023-04-15T05:33:14.786Z,85.99
2023-04-15T05:34:17.853Z,85.92
2023-04-15T05:35:20.817Z,86.32
2023-04-15T05:36:23.732Z,86.16
2023-04-15T05:37:26.715Z,86.04
2023-04-15T05:38:29.865Z,86.16
2023-04-15T05:39:32.847Z,86.21
2023-04-15T05:40:36.117Z,85.97
2023-04-15T05:41:39.470Z,86.10
2023-04-15T05:42:43.128Z,85.91
2023-04-15T05:43:46.011Z,86.29
2023-04-15T05:44:48.872Z,86.16
2023-04-15T05:45:51.788Z,85.90
2023-04-15T05:46:54.895Z,86.09
2023-04-15T05:47:57.776Z,86.13
2023-04-15T05:49:00.963Z,86.16
2023-04-15T05:50:05.345Z,86.11
2023-04-15T05:51:08.317Z,86.33
2023-04-15T05:52:11.241Z,86.38
2023-04-15T05:53:14.086Z,86.39
2023-04-15T05:54:19.950Z,86.40
2023-04-15T05:55:23.085Z,86.31
2023-04-15T05:56:27.167Z,86.32
2023-04-15T05:57:30.076Z,86.55
2023-04-15T05:58:33.163Z,86.31
2023-04-15T05:59:36.200Z,86.46
2023-04-15T06:00:39.726Z,86.31
2023-04-15T06:01:42.973Z,86.35
2023-04-15T06:02:46.062Z,86.74
2023-04-15T06:03:49.298Z,86.37
2023-04-15T06:04:52.459Z,86.62
2023-04-15T06:05:55.629Z,86.62
2023-04-15T06:06:58.485Z,86.40
2023-04-15T06:08:01.612Z,86.39
2023-04-15T06:09:06.266Z,86.35
2023-04-15T06:10:09.935Z,86.65
2023-04-15T06:11:12.902Z,86.72
2023-04-15T06:12:17.122Z,86.67
2023-04-15T06:13:20.244Z,86.89
2023-04-15T06:14:23.255Z,86.66
2023-04-15T06:15:26.181Z,86.66
2023-04-15T06:16:29.112Z,86.85
2023-04-15T06:17:32.145Z,86.85
2023-04-15T06:18:35.029Z,86.73
2023-04-15T06:19:37.974Z,86.81
2023-04-15T06:20:41.841Z,86.81
2023-04-15T06:21:45.183Z,86.93
2023-04-15T06:22:49.000Z,86.60
2023-04-15T06:23:51.875Z,86.70
2023-04-15T06:24:55.014Z,86.90
2023-04-15T06:25:57.914Z,86.81
2023-04-15T06:27:02.251Z,86.99
2023-04-15T06:28:05.153Z,87.05
2023-04-15T06:29:08.149Z,87.05
2023-04-15T06:30:11.347Z,87.07
2023-04-15T06:31:14.666Z,87.12
2023-04-15T06:32:17.504Z,87.14
2023-04-15T06:33:20.992Z,87.04
2023-04-15T06:34:23.851Z,86.98
2023-04-15T06:35:27.577Z,87.03
2023-04-15T06:36:30.531Z,87.00
2023-04-15T06:37:33.351Z,87.14
2023-04-15T06:38:36.295Z,87.14
2023-04-15T06:39:39.467Z,86.94
2023-04-15T06:40:42.612Z,86.98
2023-04-15T06:41:45.570Z,87.10
2023-04-15T06:42:48.587Z,87.23
2023-04-15T06:43:51.999Z,87.41
2023-04-15T06:44:54.947Z,87.40
2023-04-15T06:45:58.332Z,87.22
2023-04-15T06:47:01.325Z,87.30
2023-04-15T06:48:04.494Z,87.03
2023-04-15T06:49:07.355Z,87.13
2023-04-15T06:50:10.743Z,86.93
2023-04-15T06:51:14.048Z,87.33
2023-04-15T06:52:16.980Z,87.16
2023-04-15T06:53:19.845Z,87.15
2023-04-15T06:54:22.746Z,87.45
2023-04-15T06:55:25.948Z,87.26
2023-04-15T06:56:28.992Z,87.16
2023-04-15T06:57:33.769Z,87.23
2023-04-15T06:58:37.824Z,87.32
2023-04-15T06:59:40.730Z,87.52
2023-04-15T07:00:43.615Z,87.34
2023-04-15T07:01:46.627Z,87.50
2023-04-15T07:02:49.717Z,87.41
2023-04-15T07:03:53.078Z,87.52
2023-04-15T07:04:57.038Z,87.31
2023-04-15T07:05:59.968Z,87.33
2023-04-15T07:07:02.877Z,87.39
2023-04-15T07:08:06.822Z,87.53
2023-04-15T07:09:10.428Z,87.40
2023-04-15T07:10:14.993Z,87.52
2023-04-15T07:11:17.842Z,87.50
2023-04-15T07:12:20.967Z,87.24
2023-04-15T07:13:23.798Z,87.46
2023-04-15T07:14:26.696Z,87.69
2023-04-15T07:15:29.612Z,87.61
2023-04-15T07:16:32.557Z,87.63
2023-04-15T07:17:35.494Z,87.49
2023-04-15T07:18:38.399Z,87.82
2023-04-15T07:19:41.373Z,87.74
2023-04-15T07:20:44.300Z,87.58
2023-04-15T07:21:47.560Z,87.61
2023-04-15T07:22:50.566Z,87.76
2023-04-15T07:23:53.496Z,87.70
2023-04-15T07:24:56.413Z,87.75
2023-04-15T07:25:59.408Z,87.72
2023-04-15T07:27:02.565Z,87.81
2023-04-15T07:28:05.481Z,87.69
2023-04-15T07:29:08.387Z,87.78
2023-04-15T07:30:13.172Z,87.96
2023-04-15T07:31:17.222Z,87.68
2023-04-15T07:32:20.281Z,87.75
2023-04-15T07:33:23.909Z,87.79
2023-04-15T07:34:27.315Z,87.75
2023-04-15T07:35:30.372Z,87.64
2023-04-15T07:36:33.275Z,87.93
2023-04-15T07:37:36.281Z,87.75
2023-04-15T07:38:40.188Z,87.84
2023-04-15T07:39:43.834Z,88.00
2023-04-15T07:40:47.165Z,87.92
2023-04-15T07:41:50.085Z,87.68
2023-04-15T07:42:53.207Z,87.88
2023-04-15T07:43:56.071Z,88.01
2023-04-15T07:44:59.051Z,87.91
2023-04-15T07:46:02.027Z,88.00
2023-04-15T07:47:04.998Z,87.89
2023-04-15T07:48:08.434Z,87.66
2023-04-15T07:49:11.291Z,87.68
2023-04-15T07:50:14.640Z,87.79
2023-04-15T07:51:17.917Z,87.90
2023-04-15T07:52:21.072Z,88.07
2023-04-15T07:53:24.220Z,87.95
2023-04-15T07:54:27.536Z,88.06
2023-04-15T07:55:30.776Z,88.19
2023-04-15T07:56:33.629Z,87.91
2023-04-15T07:57:37.282Z,88.10
2023-04-15T07:58:40.508Z,88.13
2023-04-15T07:59:43.384Z,88.08
2023-04-15T08:00:46.763Z,88.10
2023-04-15T08:01:50.268Z,88.16
2023-04-15T08:02:54.481Z,87.94
2023-04-15T08:03:57.989Z,88.12
2023-04-15T08:05:03.411Z,87.98
2023-04-15T08:06:06.689Z,88.06
2023-04-15T08:07:09.903Z,88.03
2023-04-15T08:08:12.992Z,88.10
2023-04-15T08:09:16.354Z,88.18
2023-04-15T08:10:19.621Z,88.27
2023-04-15T08:11:24.562Z,88.07
2023-04-15T08:12:27.507Z,88.15
2023-04-15T08:13:32.748Z,88.25
2023-04-15T08:14:35.772Z,88.39
2023-04-15T08:15:38.971Z,88.17
2023-04-15T08:16:42.546Z,88.39
2023-04-15T08:17:45.631Z,88.37
2023-04-15T08:18:49.991Z,88.36
2023-04-15T08:19:53.918Z,88.27
2023-04-15T08:20:56.846Z,88.37
2023-04-15T08:22:00.658Z,88.45
2023-04-15T08:23:04.801Z,88.46
2023-04-15T08:24:08.148Z,88.64
2023-04-15T08:25:11.036Z,88.51
2023-04-15T08:26:14.340Z,88.61
2023-04-15T08:27:27.128Z,88.39
2023-04-15T08:28:33.625Z,88.52
2023-04-15T08:29:36.580Z,88.70
2023-04-15T08:30:39.473Z,88.45
2023-04-15T08:31:42.951Z,88.43
2023-04-15T08:32:47.316Z,88.51
2023-04-15T08:33:52.579Z,88.59
2023-04-15T08:34:55.671Z,88.61
2023-04-15T08:36:13.091Z,88.65
2023-04-15T08:37:34.587Z,88.79
2023-04-15T08:38:37.727Z,88.81
2023-04-15T08:39:40.598Z,88.52
2023-04-15T08:40:46.221Z,88.85
2023-04-15T08:41:56.728Z,88.80
2023-04-15T08:43:02.704Z,89.05
2023-04-15T08:44:06.173Z,88.89
2023-04-15T08:45:13.424Z,88.78
2023-04-15T08:46:16.877Z,88.77
2023-04-15T08:47:24.471Z,88.69
2023-04-15T08:48:33.425Z,88.72
2023-04-15T08:49:40.203Z,88.60
2023-04-15T08:50:43.448Z,88.56
2023-04-15T08:51:46.492Z,88.72
2023-04-15T08:52:49.711Z,88.81
2023-04-15T08:53:53.117Z,88.81
2023-04-15T08:54:59.262Z,88.86
2023-04-15T08:56:06.295Z,88.88
2023-04-15T08:57:09.469Z,88.71
2023-04-15T08:58:16.600Z,88.82
2023-04-15T08:59:22.043Z,88.79
2023-04-15T09:00:26.093Z,88.73
2023-04-15T09:01:29.236Z,88.92
2023-04-15T09:02:32.336Z,88.96
2023-04-15T09:03:35.826Z,88.77
2023-04-15T09:04:38.804Z,88.70
2023-04-15T09:05:42.527Z,88.61
2023-04-15T09:06:45.639Z,88.71
2023-04-15T09:07:50.389Z,88.94
2023-04-15T09:08:53.480Z,88.92
2023-04-15T09:09:56.753Z,88.96
2023-04-15T09:11:00.172Z,89.19
2023-04-15T09:12:03.055Z,89.04
2023-04-15T09:13:05.884Z,88.87
2023-04-15T09:14:08.825Z,88.88
2023-04-15T09:15:12.925Z,88.83
2023-04-15T09:16:15.845Z,88.89
2023-04-15T09:17:24.773Z,88.88
2023-04-15T09:18:29.892Z,88.98
2023-04-15T09:19:34.703Z,88.90
2023-04-15T09:20:42.506Z,88.84
2023-04-15T09:21:47.868Z,88.95
2023-04-15T09:22:52.068Z,89.04
2023-04-15T09:24:01.240Z,89.04
2023-04-15T09:25:24.995Z,89.07
2023-04-15T09:26:35.812Z,89.28
2023-04-15T09:27:38.673Z,89.21
2023-04-15T09:28:43.152Z,89.14
2023-04-15T09:29:50.329Z,89.14
2023-04-15T09:30:57.635Z,89.18
2023-04-15T09:32:11.806Z,89.20
2023-04-15T09:33:14.888Z,89.15
2023-04-15T09:34:18.070Z,89.24
2023-04-15T09:35:22.392Z,89.24
2023-04-15T09:36:25.658Z,89.16
2023-04-15T09:37:37.482Z,89.17
2023-04-15T09:38:56.427Z,89.26
2023-04-15T09:39:59.387Z,89.25
2023-04-15T09:41:02.661Z,89.30
2023-04-15T09:42:07.248Z,89.67
2023-04-15T09:43:13.103Z,89.62
2023-04-15T09:44:24.088Z,89.63
2023-04-15T09:45:29.585Z,89.65
2023-04-15T09:46:45.647Z,89.72
2023-04-15T09:47:48.555Z,89.68
2023-04-15T09:49:08.492Z,89.49
2023-04-15T09:50:11.819Z,89.54
2023-04-15T09:51:15.560Z,89.71
2023-04-15T09:52:18.407Z,89.69
2023-04-15T09:53:23.643Z,89.86
2023-04-15T09:54:34.037Z,89.65
2023-04-15T09:55:36.902Z,89.68
2023-04-15T09:56:42.268Z,89.66
2023-04-15T09:57:47.302Z,89.58
2023-04-15T09:58:56.869Z,89.63
2023-04-15T09:59:59.815Z,89.67
2023-04-15T10:01:10.016Z,89.67
2023-04-15T10:02:14.346Z,89.74
2023-04-15T10:03:26.732Z,89.79
2023-04-15T10:04:30.450Z,89.87
2023-04-15T10:05:34.190Z,89.84
2023-04-15T10:06:37.478Z,90.05
2023-04-15T10:07:43.655Z,90.08
2023-04-15T10:08:47.782Z,90.27
2023-04-15T10:09:51.259Z,90.20
2023-04-15T10:10:54.710Z,90.10
2023-04-15T10:11:57.615Z,90.08
2023-04-15T10:13:01.396Z,90.11
2023-04-15T10:14:05.052Z,90.01
2023-04-15T10:15:15.872Z,90.16
2023-04-15T10:16:23.190Z,90.16
2023-04-15T10:17:35.472Z,90.16
2023-04-15T10:18:45.225Z,90.11
2023-04-15T10:19:49.399Z,90.18
2023-04-15T10:20:52.911Z,90.15
2023-04-15T10:21:56.128Z,90.07
2023-04-15T10:22:59.152Z,90.17
2023-04-15T10:24:04.006Z,90.28
2023-04-15T10:25:07.897Z,90.35
2023-04-15T10:26:12.821Z,90.21
2023-04-15T10:27:17.962Z,90.17
2023-04-15T10:28:25.137Z,90.37
2023-04-15T10:29:28.399Z,90.13
2023-04-15T10:30:32.856Z,90.14
2023-04-15T10:31:38.479Z,90.09
2023-04-15T10:32:42.226Z,90.34
2023-04-15T10:33:47.480Z,90.23
2023-04-15T10:34:54.311Z,90.41
2023-04-15T10:35:58.354Z,90.32
2023-04-15T10:37:04.690Z,90.32
2023-04-15T10:38:44.477Z,90.26
2023-04-15T10:39:47.917Z,90.42
2023-04-15T10:40:50.991Z,90.37
2023-04-15T10:42:15.409Z,90.31
2023-04-15T10:43:27.664Z,90.43
2023-04-15T10:44:31.066Z,90.42
2023-04-15T10:45:39.461Z,90.22
2023-04-15T10:46:45.176Z,90.37
2023-04-15T10:47:53.294Z,90.36
2023-04-15T10:48:56.241Z,90.40
2023-04-15T10:50:01.305Z,90.36
2023-04-15T10:51:05.782Z,90.36
2023-04-15T10:52:08.669Z,90.27
2023-04-15T10:53:11.765Z,90.33
2023-04-15T10:54:29.593Z,90.25
2023-04-15T10:55:34.446Z,90.33
2023-04-15T10:56:37.361Z,90.29
2023-04-15T10:57:42.007Z,90.48
2023-04-15T10:58:45.556Z,90.40
2023-04-15T11:00:12.202Z,90.41
2023-04-15T11:01:15.129Z,90.59
2023-04-15T11:02:18.204Z,90.73
2023-04-15T11:03:43.096Z,90.60
2023-04-15T11:05:01.886Z,90.72
2023-04-15T11:06:08.997Z,90.90
2023-04-15T11:07:11.923Z,91.00
2023-04-15T11:08:15.264Z,90.96
2023-04-15T11:09:35.211Z,90.96
2023-04-15T11:10:50.945Z,90.99
2023-04-15T11:12:09.933Z,91.04
2023-04-15T11:13:17.758Z,90.94
2023-04-15T11:14:20.658Z,91.07
2023-04-15T11:15:34.015Z,90.90
2023-04-15T11:16:45.136Z,90.74
2023-04-15T11:17:48.513Z,90.72
2023-04-15T11:18:57.581Z,90.69
2023-04-15T11:20:01.515Z,90.74
2023-04-15T11:21:07.441Z,90.67
2023-04-15T11:22:11.506Z,90.84
2023-04-15T11:23:44.324Z,90.81
2023-04-15T11:24:50.597Z,90.72
2023-04-15T11:25:55.639Z,90.49
2023-04-15T11:26:59.884Z,90.53
2023-04-15T11:28:04.475Z,90.73
2023-04-15T11:29:07.315Z,90.55
2023-04-15T11:30:28.450Z,90.36
2023-04-15T11:31:31.350Z,90.51
2023-04-15T11:32:34.331Z,90.34
2023-04-15T11:33:38.320Z,90.26
2023-04-15T11:34:41.162Z,90.22
2023-04-15T11:35:44.197Z,90.41
2023-04-15T11:36:47.547Z,90.53
2023-04-15T11:37:51.141Z,90.71
2023-04-15T11:38:54.104Z,90.69
2023-04-15T11:39:56.960Z,90.58
2023-04-15T11:41:00.008Z,90.59
2023-04-15T11:42:03.079Z,90.63
2023-04-15T11:43:07.081Z,90.60
2023-04-15T11:44:19.344Z,90.66
2023-04-15T11:45:22.249Z,90.65
2023-04-15T11:46:34.686Z,90.36
2023-04-15T11:47:38.954Z,90.24
2023-04-15T11:48:46.709Z,90.22
2023-04-15T11:49:49.632Z,90.31
2023-04-15T11:51:00.008Z,90.29
2023-04-15T11:52:11.364Z,90.59
2023-04-15T11:53:14.382Z,90.41
2023-04-15T11:54:19.723Z,90.09
2023-04-15T11:55:24.288Z,89.90
2023-04-15T11:56:27.683Z,89.92
2023-04-15T11:57:35.782Z,89.88
2023-04-15T11:58:39.459Z,89.99
2023-04-15T11:59:46.203Z,90.05
2023-04-15T12:01:00.175Z,90.03
2023-04-15T12:02:12.949Z,90.12
2023-04-15T12:03:26.352Z,90.30
2023-04-15T12:04:29.654Z,90.44
2023-04-15T12:05:32.770Z,90.37
2023-04-15T12:06:36.980Z,90.23
2023-04-15T12:07:59.515Z,89.90
2023-04-15T12:09:16.609Z,89.49
2023-04-15T12:10:19.489Z,89.39
2023-04-15T12:11:58.285Z,89.22
2023-04-15T12:13:01.694Z,89.42
2023-04-15T12:14:07.705Z,89.67
2023-04-15T12:15:10.657Z,90.04
2023-04-15T12:16:13.770Z,90.27
2023-04-15T12:17:16.867Z,89.99
2023-04-15T12:18:19.905Z,89.80
2023-04-15T12:19:28.695Z,90.06
2023-04-15T12:20:31.853Z,90.10
2023-04-15T12:21:37.502Z,89.94
2023-04-15T12:22:40.402Z,89.54
2023-04-15T12:23:57.354Z,89.53
2023-04-15T12:25:02.754Z,89.61
2023-04-15T12:26:07.572Z,89.17
2023-04-15T12:27:15.099Z,89.16
2023-04-15T12:28:17.986Z,89.03
2023-04-15T12:29:26.738Z,89.14
2023-04-15T12:30:30.133Z,89.22
2023-04-15T12:31:34.354Z,89.36
2023-04-15T12:32:37.443Z,89.14
2023-04-15T12:33:40.735Z,88.42
2023-04-15T12:34:49.830Z,87.90
2023-04-15T12:35:52.706Z,87.84
2023-04-15T12:36:56.498Z,87.89
2023-04-15T12:37:59.396Z,88.03
2023-04-15T12:39:04.797Z,88.03
2023-04-15T12:40:09.321Z,88.28
2023-04-15T12:41:12.415Z,88.63
2023-04-15T12:42:16.931Z,88.85
2023-04-15T12:43:19.938Z,88.78
2023-04-15T12:44:24.359Z,88.62
2023-04-15T12:45:28.854Z,88.66
2023-04-15T12:46:32.899Z,88.79
2023-04-15T12:47:36.364Z,88.79
2023-04-15T12:48:40.125Z,88.97
2023-04-15T12:49:43.324Z,89.16
2023-04-15T12:50:46.450Z,88.83
2023-04-15T12:51:50.418Z,88.66
2023-04-15T12:52:53.389Z,88.72
2023-04-15T12:53:56.375Z,88.82
2023-04-15T12:55:00.404Z,88.94
2023-04-15T12:56:03.521Z,88.99
2023-04-15T12:57:07.403Z,89.11
2023-04-15T12:58:12.200Z,89.14
2023-04-15T12:59:17.007Z,88.86
2023-04-15T13:00:19.907Z,88.32
2023-04-15T13:01:23.514Z,88.12
2023-04-15T13:02:28.785Z,87.83
2023-04-15T13:03:31.978Z,87.69
2023-04-15T13:04:35.208Z,87.79
2023-04-15T13:05:39.976Z,87.74
2023-04-15T13:06:43.334Z,87.79
2023-04-15T13:07:46.956Z,87.98
2023-04-15T13:08:58.428Z,88.08
2023-04-15T13:10:01.735Z,88.49
2023-04-15T13:11:04.704Z,88.30
2023-04-15T13:12:07.972Z,88.04
2023-04-15T13:13:10.951Z,88.14
2023-04-15T13:14:13.892Z,88.32
2023-04-15T13:15:20.695Z,88.05
2023-04-15T13:16:26.692Z,87.80
2023-04-15T13:17:29.722Z,88.14
2023-04-15T13:18:34.709Z,88.34
2023-04-15T13:19:38.992Z,88.24
2023-04-15T13:20:42.373Z,88.07
2023-04-15T13:21:45.538Z,87.96
2023-04-15T13:22:48.860Z,86.97
2023-04-15T13:23:51.902Z,86.86
2023-04-15T13:24:54.886Z,86.52
2023-04-15T13:25:57.940Z,86.65
2023-04-15T13:27:00.882Z,86.93
2023-04-15T13:28:04.186Z,86.75
2023-04-15T13:29:07.401Z,86.56
2023-04-15T13:30:10.695Z,86.08
2023-04-15T13:31:13.832Z,86.30
2023-04-15T13:32:16.728Z,86.74
2023-04-15T13:33:19.601Z,86.11
2023-04-15T13:34:22.462Z,85.17
2023-04-15T13:35:25.461Z,85.41
2023-04-15T13:36:28.321Z,86.09
2023-04-15T13:37:31.228Z,86.41
2023-04-15T13:38:34.154Z,86.07
2023-04-15T13:39:37.056Z,86.14
2023-04-15T13:40:39.967Z,86.18
2023-04-15T13:41:42.864Z,85.89
2023-04-15T13:42:46.087Z,84.91
2023-04-15T13:43:48.972Z,84.66
2023-04-15T13:44:51.843Z,85.13
2023-04-15T13:45:54.835Z,84.73
2023-04-15T13:46:58.016Z,84.30
2023-04-15T13:48:01.295Z,84.72
2023-04-15T13:49:04.507Z,84.73
2023-04-15T13:50:07.781Z,84.85